createdAt,value
2022-12-13T00:04:34.140Z,11.00
2022-12-13T00:09:33.660Z,6.40
2022-12-13T00:14:34.234Z,5.30
2022-12-13T00:19:33.444Z,12.30
2022-12-13T00:24:32.876Z,7.60
2022-12-13T00:29:32.221Z,8.70
2022-12-13T00:34:31.946Z,11.30
2022-12-13T00:39:34.642Z,14.40
2022-12-13T00:44:33.900Z,12.30
2022-12-13T00:49:33.271Z,8.70
2022-12-13T00:54:32.804Z,15.30
2022-12-13T00:59:33.037Z,6.90
2022-12-13T01:04:32.685Z,10.10
2022-12-13T01:09:33.789Z,5.70
2022-12-13T01:14:35.755Z,8.70
2022-12-13T01:19:34.880Z,7.20
2022-12-13T01:24:35.444Z,8.80
2022-12-13T01:29:36.350Z,8.80
2022-12-13T01:34:35.626Z,6.00
2022-12-13T01:39:38.150Z,6.20
2022-12-13T01:45:15.225Z,7.60
2022-12-13T01:50:23.188Z,8.60
2022-12-13T01:55:24.111Z,7.20
2022-12-13T02:00:24.582Z,9.10
2022-12-13T02:05:32.979Z,7.40
2022-12-13T02:10:32.761Z,13.60
2022-12-13T02:15:43.235Z,7.70
2022-12-13T02:21:15.433Z,8.50
2022-12-13T02:26:56.523Z,8.60
2022-12-13T02:32:06.392Z,10.00
2022-12-13T02:37:17.565Z,9.00
2022-12-13T02:42:27.184Z,9.50
2022-12-13T02:47:29.429Z,11.90
2022-12-13T02:52:33.562Z,8.90
2022-12-13T02:57:39.709Z,10.70
2022-12-13T03:02:55.932Z,13.60
2022-12-13T03:08:22.101Z,8.50
2022-12-13T03:13:38.056Z,7.40
2022-12-13T03:18:38.861Z,7.40
2022-12-13T03:23:38.938Z,7.90
2022-12-13T03:28:38.948Z,8.30
2022-12-13T03:33:39.087Z,8.50
2022-12-13T03:38:40.101Z,12.70
2022-12-13T03:43:42.347Z,11.80
2022-12-13T03:48:41.761Z,7.50
2022-12-13T03:53:41.940Z,11.70
2022-12-13T03:58:42.404Z,8.00
2022-12-13T04:03:43.744Z,9.60
2022-12-13T04:08:45.493Z,13.90
2022-12-13T04:13:44.650Z,8.90
2022-12-13T04:18:43.870Z,11.90
2022-12-13T04:23:43.347Z,14.30
2022-12-13T04:28:42.910Z,13.80
2022-12-13T04:33:42.268Z,15.00
2022-12-13T04:38:41.491Z,11.70
2022-12-13T04:43:40.986Z,13.00
2022-12-13T04:48:40.496Z,9.70
2022-12-13T04:53:40.073Z,14.70
2022-12-13T04:58:39.346Z,14.70
2022-12-13T05:03:40.069Z,14.90
2022-12-13T05:08:41.753Z,7.00
2022-12-13T05:13:42.244Z,9.60
2022-12-13T05:18:43.154Z,11.60
2022-12-13T05:23:46.212Z,9.30
2022-12-13T05:28:46.123Z,8.80
2022-12-13T05:33:45.287Z,10.30
2022-12-13T05:38:45.260Z,15.30
2022-12-13T05:43:44.269Z,9.10
2022-12-13T05:48:44.656Z,15.00
2022-12-13T05:53:48.565Z,13.90
2022-12-13T05:58:53.575Z,10.90
2022-12-13T06:03:54.106Z,11.00
2022-12-13T06:08:53.510Z,13.80
2022-12-13T06:14:01.059Z,14.00
2022-12-13T06:19:04.539Z,15.20
2022-12-13T06:24:05.788Z,16.00
2022-12-13T06:29:06.358Z,8.50
2022-12-13T06:34:14.851Z,13.90
2022-12-13T06:39:15.846Z,13.90
2022-12-13T06:44:16.023Z,11.20
2022-12-13T06:49:17.039Z,11.10
2022-12-13T06:54:19.369Z,12.30
2022-12-13T06:59:21.591Z,10.70
2022-12-13T07:04:29.917Z,12.90
2022-12-13T07:09:29.955Z,9.80
2022-12-13T07:14:30.066Z,10.90
2022-12-13T07:19:42.270Z,8.60
2022-12-13T07:24:41.658Z,10.00
2022-12-13T07:29:40.979Z,11.70
2022-12-13T07:34:40.563Z,9.60
2022-12-13T07:39:40.289Z,10.80
2022-12-13T07:44:39.721Z,8.70
2022-12-13T07:49:40.756Z,10.70
2022-12-13T07:54:40.936Z,10.70
2022-12-13T07:59:40.874Z,10.50
2022-12-13T08:04:41.362Z,6.70
2022-12-13T08:09:41.786Z,12.90
2022-12-13T08:14:42.154Z,10.50
2022-12-13T08:19:41.962Z,12.10
2022-12-13T08:24:40.997Z,12.70
2022-12-13T08:29:45.100Z,9.90
2022-12-13T08:34:45.677Z,10.80
2022-12-13T08:39:46.030Z,13.80
2022-12-13T08:44:46.216Z,12.70
2022-12-13T08:49:45.229Z,15.60
2022-12-13T08:54:45.790Z,12.30
2022-12-13T08:59:44.709Z,16.10
2022-12-13T09:04:44.476Z,12.50
2022-12-13T09:09:44.577Z,13.00
2022-12-13T09:14:45.489Z,12.50
2022-12-13T09:19:46.125Z,13.40
2022-12-13T09:24:50.008Z,10.40
2022-12-13T09:29:51.229Z,13.00
2022-12-13T09:34:58.690Z,13.20
2022-12-13T09:40:26.053Z,11.60
2022-12-13T09:45:32.128Z,10.60
2022-12-13T09:50:37.636Z,15.60
2022-12-13T09:55:47.382Z,13.00
2022-12-13T10:00:48.622Z,15.40
2022-12-13T10:05:59.025Z,13.30
2022-12-13T10:10:58.958Z,13.60
2022-12-13T10:16:05.532Z,10.30
2022-12-13T10:21:11.974Z,9.20
2022-12-13T10:26:23.764Z,5.30
2022-12-13T10:31:25.419Z,12.30
2022-12-13T10:36:43.076Z,11.40
2022-12-13T10:41:43.735Z,10.80
2022-12-13T10:46:50.392Z,11.70
2022-12-13T10:51:52.509Z,11.90
2022-12-13T10:57:00.365Z,16.90
2022-12-13T11:02:00.351Z,10.60
2022-12-13T11:07:02.228Z,15.00
2022-12-13T11:12:13.729Z,12.70
2022-12-13T11:17:22.955Z,13.70
2022-12-13T11:22:29.436Z,13.40
2022-12-13T11:27:57.742Z,13.30
2022-12-13T11:33:19.085Z,10.50
2022-12-13T11:38:34.318Z,13.50
2022-12-13T11:43:42.840Z,11.30
2022-12-13T11:48:54.123Z,14.40
2022-12-13T11:54:01.719Z,13.40
2022-12-13T11:59:20.752Z,15.70
2022-12-13T12:04:36.308Z,14.30
2022-12-13T12:09:38.815Z,10.90
2022-12-13T12:14:48.386Z,15.90
2022-12-13T12:19:58.171Z,16.20
2022-12-13T12:25:25.107Z,15.40
2022-12-13T12:30:36.752Z,12.80
2022-12-13T12:36:05.695Z,14.60
2022-12-13T12:41:31.023Z,10.50
2022-12-13T12:47:17.775Z,12.90
2022-12-13T12:52:30.177Z,14.60
2022-12-13T12:57:43.252Z,13.20
2022-12-13T13:02:52.993Z,12.50
2022-12-13T13:07:59.099Z,11.10
2022-12-13T13:13:12.533Z,13.30
2022-12-13T13:18:52.417Z,16.50
2022-12-13T13:24:06.124Z,13.60
2022-12-13T13:29:37.066Z,15.50
2022-12-13T13:34:38.922Z,14.10
2022-12-13T13:40:31.833Z,13.30
2022-12-13T13:45:32.259Z,13.50
2022-12-13T13:51:16.648Z,13.70
2022-12-13T13:56:50.132Z,14.00
2022-12-13T14:02:34.180Z,13.20
2022-12-13T14:08:25.588Z,13.80
2022-12-13T14:14:22.801Z,16.90
2022-12-13T14:20:03.269Z,11.80
2022-12-13T14:25:42.276Z,15.60
2022-12-13T14:30:56.992Z,13.00
2022-12-13T14:36:06.999Z,14.70
2022-12-13T14:41:17.342Z,14.40
2022-12-13T14:46:25.037Z,7.70
2022-12-13T14:51:39.829Z,15.20
2022-12-13T14:56:58.167Z,10.70
2022-12-13T15:02:04.732Z,15.60
2022-12-13T15:07:13.726Z,14.50
2022-12-13T15:12:25.798Z,11.00
2022-12-13T15:17:40.146Z,11.10
2022-12-13T15:23:03.964Z,18.20
2022-12-13T15:28:08.017Z,17.20
2022-12-13T15:33:26.312Z,18.30
2022-12-13T15:38:30.880Z,11.40
2022-12-13T15:43:46.556Z,19.20
2022-12-13T15:48:50.551Z,14.00
2022-12-13T15:54:22.193Z,16.60
2022-12-13T15:59:33.952Z,20.60
2022-12-13T16:04:35.582Z,19.70
2022-12-13T16:09:38.916Z,16.70
2022-12-13T16:14:50.039Z,19.20
2022-12-13T16:19:53.339Z,14.70
2022-12-13T16:24:57.201Z,22.50
2022-12-13T16:29:57.520Z,16.10
2022-12-13T16:34:59.518Z,22.30
2022-12-13T16:40:02.048Z,15.20
2022-12-13T16:45:39.642Z,15.40
2022-12-13T16:50:23.269Z,20.30
2022-12-13T16:55:22.980Z,17.00
2022-12-13T17:00:23.815Z,23.50
2022-12-13T17:05:24.942Z,16.90
2022-12-13T17:10:25.588Z,14.50
2022-12-13T17:15:25.507Z,25.50
2022-12-13T17:20:25.950Z,18.10
2022-12-13T17:25:30.713Z,17.40
2022-12-13T17:30:32.854Z,19.70
2022-12-13T17:35:35.101Z,16.30
2022-12-13T17:40:38.317Z,19.80
2022-12-13T17:45:43.181Z,12.80
2022-12-13T17:50:43.481Z,21.10
2022-12-13T17:55:43.469Z,15.20
2022-12-13T18:00:46.456Z,22.40
2022-12-13T18:05:59.017Z,27.30
2022-12-13T18:16:38.750Z,21.80
2022-12-13T18:21:41.773Z,21.90
2022-12-13T18:26:41.467Z,26.30
2022-12-13T18:31:41.970Z,19.00
2022-12-13T18:36:42.120Z,22.50
2022-12-13T18:41:42.509Z,26.10
2022-12-13T18:46:47.195Z,22.20
2022-12-13T18:51:49.413Z,23.20
2022-12-13T18:56:49.121Z,15.20
2022-12-13T19:01:49.205Z,23.70
2022-12-13T19:06:48.791Z,21.00
2022-12-13T19:11:48.645Z,27.80
2022-12-13T19:16:48.051Z,23.40
2022-12-13T19:21:55.373Z,12.60
2022-12-13T19:26:55.075Z,16.00
2022-12-13T19:31:55.177Z,23.00
2022-12-13T19:36:55.391Z,26.30
2022-12-13T19:41:55.133Z,31.30
2022-12-13T19:46:56.328Z,27.50
2022-12-13T19:51:55.905Z,33.80
2022-12-13T19:56:56.421Z,31.80
2022-12-13T20:01:56.399Z,26.60
2022-12-13T20:06:57.614Z,22.20
2022-12-13T20:12:00.279Z,34.50
2022-12-13T20:17:00.388Z,38.90
2022-12-13T20:22:00.536Z,28.90
2022-12-13T20:27:06.312Z,34.90
2022-12-13T20:32:07.630Z,30.40
2022-12-13T20:37:07.067Z,31.60
2022-12-13T20:42:06.929Z,18.50
2022-12-13T20:47:06.991Z,25.00
2022-12-13T20:52:10.156Z,20.30
2022-12-13T20:57:16.501Z,29.80
2022-12-13T21:02:16.638Z,32.30
2022-12-13T21:07:35.529Z,29.00
2022-12-13T21:12:35.574Z,16.90
2022-12-13T21:17:50.858Z,31.90
2022-12-13T21:22:55.622Z,29.00
2022-12-13T21:27:55.740Z,32.80
2022-12-13T21:32:54.953Z,19.00
2022-12-13T21:37:56.040Z,35.80
2022-12-13T21:42:57.706Z,24.10
2022-12-13T21:47:57.349Z,30.20
2022-12-13T21:52:56.824Z,29.50
2022-12-13T21:58:15.281Z,23.70
2022-12-13T22:03:17.211Z,26.00
2022-12-13T22:08:18.957Z,33.50
2022-12-13T22:13:18.152Z,37.60
2022-12-13T22:18:18.838Z,37.20
2022-12-13T22:23:19.196Z,37.80
2022-12-13T22:28:18.455Z,23.90
2022-12-13T22:33:17.483Z,31.10
2022-12-13T22:38:16.354Z,24.70
2022-12-13T22:43:20.385Z,33.60
2022-12-13T22:48:20.352Z,39.40
2022-12-13T22:53:20.216Z,16.70
2022-12-13T22:58:19.470Z,30.60
2022-12-13T23:03:19.534Z,35.30
2022-12-13T23:08:18.625Z,34.40
2022-12-13T23:13:19.162Z,24.60
2022-12-13T23:18:18.338Z,37.80
2022-12-13T23:23:19.536Z,24.30
2022-12-13T23:28:18.786Z,17.30
2022-12-13T23:33:18.292Z,24.30
2022-12-13T23:38:17.267Z,18.40
2022-12-13T23:43:16.911Z,37.70
2022-12-13T23:48:16.443Z,22.90
2022-12-13T23:53:16.563Z,26.70
2022-12-13T23:58:16.796Z,16.30
